Time;durP1;ratioP1;P1;durP2;ratioP2;P2;SDS_P1;SDS_P2;PMS_P1;PMS_P2;Temp;Humidity;BMP_temperature;BMP_pressure;BME280_temperature;BME280_humidity;BME280_pressure;Samples;Min_cycle;Max_cycle;Signal;HPM_P1;HPM_P2
2024/01/19 00:01:27;;;;;;;6.53;3.17;;;8.90;47.20;;;;;;5089082;28;20478;-78
2024/01/19 00:03:56;;;;;;;6.60;2.57;;;8.90;47.20;;;;;;5090852;28;20448;-77
2024/01/19 00:06:24;;;;;;;4.17;2.83;;;8.90;47.00;;;;;;5080944;28;20484;-77
2024/01/19 00:08:53;;;;;;;8.67;2.50;;;9.00;47.30;;;;;;5085681;28;20464;-77
2024/01/19 00:11:21;;;;;;;11.60;2.70;;;9.00;47.00;;;;;;5091193;28;20441;-77
2024/01/19 00:13:50;;;;;;;9.13;2.80;;;8.90;47.20;;;;;;5091155;28;20432;-78
2024/01/19 00:16:19;;;;;;;5.77;2.63;;;9.00;47.30;;;;;;5090392;28;20453;-78
2024/01/19 00:18:47;;;;;;;4.63;2.57;;;9.00;47.40;;;;;;5090093;28;20537;-78
2024/01/19 00:21:15;;;;;;;4.87;2.57;;;9.00;47.20;;;;;;5089118;28;20452;-78
2024/01/19 00:23:44;;;;;;;3.27;2.20;;;9.10;47.50;;;;;;5089624;28;20507;-77
2024/01/19 00:26:12;;;;;;;10.50;2.40;;;9.10;47.40;;;;;;5090467;28;20469;-79
2024/01/19 00:28:40;;;;;;;6.40;2.37;;;9.00;47.60;;;;;;5090378;28;20490;-79
2024/01/19 00:31:10;;;;;;;7.43;2.23;;;9.10;47.80;;;;;;5091375;28;20445;-78
2024/01/19 00:33:38;;;;;;;3.50;2.67;;;9.00;47.90;;;;;;5090780;28;20479;-78
2024/01/19 00:36:06;;;;;;;6.40;2.20;;;9.10;48.10;;;;;;5082638;28;20487;-78
2024/01/19 00:38:37;;;;;;;5.70;1.90;;;9.00;47.90;;;;;;5090827;22;20525;-77
2024/01/19 00:41:06;;;;;;;6.30;2.20;;;9.00;47.90;;;;;;5071777;28;20525;-75
2024/01/19 00:43:34;;;;;;;3.87;2.00;;;9.00;48.10;;;;;;5069653;28;20452;-75
2024/01/19 00:46:03;;;;;;;5.93;1.90;;;9.00;48.30;;;;;;5068745;28;20532;-76
2024/01/19 00:48:33;;;;;;;4.30;2.13;;;9.00;48.20;;;;;;5055367;28;20478;-75
2024/01/19 00:51:01;;;;;;;5.50;1.87;;;8.90;48.40;;;;;;5048343;28;20518;-76
2024/01/19 00:53:29;;;;;;;6.30;1.80;;;8.90;48.30;;;;;;5046961;28;20925;-75
2024/01/19 00:56:00;;;;;;;2.20;1.77;;;8.90;48.40;;;;;;5041991;28;20450;-75
2024/01/19 00:58:29;;;;;;;2.30;2.00;;;8.90;48.30;;;;;;5049790;28;20542;-75
2024/01/19 01:00:57;;;;;;;9.67;2.37;;;9.00;48.40;;;;;;5049855;28;20470;-75
2024/01/19 01:03:26;;;;;;;3.73;1.73;;;8.90;48.30;;;;;;5049171;28;20453;-75
2024/01/19 01:05:57;;;;;;;5.50;1.77;;;9.00;48.30;;;;;;5049866;28;20457;-74
2024/01/19 01:08:28;;;;;;;5.47;2.07;;;8.90;48.20;;;;;;5049684;28;20474;-75
2024/01/19 01:10:56;;;;;;;9.53;2.40;;;8.90;48.30;;;;;;5048240;28;20825;-75
2024/01/19 01:13:25;;;;;;;4.43;1.67;;;8.90;48.30;;;;;;5040256;28;20543;-75
2024/01/19 01:15:54;;;;;;;2.40;1.40;;;8.90;48.40;;;;;;5048477;28;20456;-75
2024/01/19 01:18:21;;;;;;;2.57;1.47;;;8.90;48.30;;;;;;5046984;28;20473;-74
2024/01/19 01:20:51;;;;;;;3.10;1.83;;;8.90;48.50;;;;;;5049493;28;20427;-75
2024/01/19 01:23:20;;;;;;;6.50;2.50;;;8.90;48.40;;;;;;5048940;28;20438;-76
2024/01/19 01:25:48;;;;;;;2.27;1.70;;;8.90;48.20;;;;;;5049218;28;20462;-75
2024/01/19 01:28:16;;;;;;;3.83;1.77;;;8.80;48.30;;;;;;5048198;28;20474;-76
2024/01/19 01:30:44;;;;;;;4.03;1.53;;;8.80;48.40;;;;;;5047271;28;20485;-75
2024/01/19 01:33:15;;;;;;;5.83;1.70;;;8.80;48.50;;;;;;5032613;28;20501;-74
2024/01/19 01:35:43;;;;;;;3.33;1.83;;;8.80;48.50;;;;;;5033107;28;20451;-74
2024/01/19 01:38:12;;;;;;;4.77;1.63;;;8.80;48.40;;;;;;5033207;28;20502;-76
2024/01/19 01:40:44;;;;;;;2.30;1.87;;;8.80;48.40;;;;;;5046805;28;20455;-74
2024/01/19 01:43:23;;;;;;;3.53;1.60;;;8.70;48.50;;;;;;5048459;28;20534;-76
2024/01/19 01:45:51;;;;;;;3.43;1.70;;;8.70;48.60;;;;;;5052624;28;20437;-76
2024/01/19 01:48:20;;;;;;;1.80;1.63;;;8.70;48.50;;;;;;5052265;28;20950;-76
2024/01/19 01:50:48;;;;;;;3.27;1.23;;;8.80;48.50;;;;;;5052965;28;20434;-75
2024/01/19 01:53:18;;;;;;;3.20;1.50;;;8.70;48.40;;;;;;5052688;28;20455;-75
2024/01/19 01:55:50;;;;;;;3.73;1.60;;;8.80;48.70;;;;;;5052444;28;20447;-73
2024/01/19 01:58:18;;;;;;;5.50;1.60;;;8.70;48.70;;;;;;5043194;28;20475;-74
2024/01/19 02:00:46;;;;;;;2.00;1.90;;;8.70;48.70;;;;;;5032708;28;20444;-74
2024/01/19 02:03:17;;;;;;;2.07;1.87;;;8.70;48.60;;;;;;5032247;28;20444;-75
2024/01/19 02:05:45;;;;;;;3.33;1.60;;;8.70;48.50;;;;;;5032316;28;20435;-76
2024/01/19 02:08:13;;;;;;;3.10;1.73;;;8.70;48.90;;;;;;5032031;28;20547;-75
2024/01/19 02:10:42;;;;;;;3.20;1.83;;;8.70;48.50;;;;;;5032599;28;20471;-74
2024/01/19 02:13:14;;;;;;;1.63;1.40;;;8.70;48.70;;;;;;5043366;28;20550;-75
2024/01/19 02:15:42;;;;;;;3.90;1.83;;;8.80;48.60;;;;;;5040883;28;20525;-76
2024/01/19 02:18:10;;;;;;;4.77;2.33;;;8.80;48.40;;;;;;5043140;28;20486;-76
2024/01/19 02:20:37;;;;;;;5.73;1.83;;;8.70;48.50;;;;;;5047028;28;20527;-76
2024/01/19 02:23:06;;;;;;;2.77;1.80;;;8.80;48.50;;;;;;5046217;28;20469;-76
2024/01/19 02:25:38;;;;;;;5.80;1.80;;;8.70;48.30;;;;;;5038182;28;20478;-76
2024/01/19 02:28:06;;;;;;;7.37;3.80;;;8.70;48.40;;;;;;5039178;28;20570;-75
2024/01/19 02:30:34;;;;;;;7.47;3.20;;;8.70;48.40;;;;;;5051246;28;20485;-75
2024/01/19 02:33:03;;;;;;;5.60;3.47;;;8.70;48.20;;;;;;5032337;28;20447;-75
2024/01/19 02:35:32;;;;;;;5.17;3.40;;;8.70;48.40;;;;;;5032504;28;20451;-75
2024/01/19 02:38:00;;;;;;;12.13;5.03;;;8.70;48.60;;;;;;5031707;28;20487;-75
2024/01/19 02:40:28;;;;;;;11.80;5.50;;;8.60;48.60;;;;;;5032122;28;20652;-75
2024/01/19 02:42:58;;;;;;;13.00;6.23;;;8.60;48.40;;;;;;5031290;28;20543;-75
2024/01/19 02:45:26;;;;;;;16.47;6.90;;;8.50;48.60;;;;;;5036507;28;20461;-75
2024/01/19 02:47:53;;;;;;;18.60;7.33;;;8.60;48.80;;;;;;5040317;28;20499;-76
2024/01/19 02:50:21;;;;;;;13.00;5.73;;;8.70;49.00;;;;;;5048164;28;20477;-77
2024/01/19 02:52:49;;;;;;;10.60;5.83;;;8.70;48.70;;;;;;5051067;28;20442;-76
2024/01/19 02:55:17;;;;;;;13.87;5.77;;;8.70;48.50;;;;;;5051540;28;20579;-74
2024/01/19 02:57:45;;;;;;;11.20;6.20;;;8.70;49.00;;;;;;5051421;28;20505;-74
2024/01/19 03:00:15;;;;;;;7.77;4.23;;;8.70;48.90;;;;;;5050584;28;20525;-75
2024/01/19 03:02:43;;;;;;;10.87;3.90;;;8.70;48.90;;;;;;5042376;28;20618;-75
2024/01/19 03:05:11;;;;;;;10.20;3.50;;;8.70;48.90;;;;;;5051399;28;20451;-74
2024/01/19 03:07:39;;;;;;;8.43;3.27;;;8.70;49.10;;;;;;5051125;28;20458;-75
2024/01/19 03:10:08;;;;;;;4.40;2.67;;;8.70;49.10;;;;;;5050114;28;20517;-75
2024/01/19 03:12:36;;;;;;;3.30;2.67;;;8.70;49.40;;;;;;5042886;28;20439;-75
2024/01/19 03:15:05;;;;;;;3.60;2.30;;;8.70;49.40;;;;;;5051424;28;20446;-75
2024/01/19 03:17:34;;;;;;;7.03;3.40;;;8.80;49.70;;;;;;5051240;28;20509;-77
2024/01/19 03:20:05;;;;;;;4.20;2.50;;;8.70;50.00;;;;;;5051113;28;20452;-74
2024/01/19 03:22:33;;;;;;;9.07;2.90;;;8.80;51.10;;;;;;5051107;28;20522;-75
2024/01/19 03:25:02;;;;;;;7.70;2.33;;;8.70;51.50;;;;;;5051004;28;20957;-76
2024/01/19 03:27:30;;;;;;;5.83;1.97;;;8.70;51.90;;;;;;5050034;28;20474;-75
2024/01/19 03:29:58;;;;;;;4.23;2.10;;;8.70;52.60;;;;;;5042606;28;20516;-76
2024/01/19 03:32:26;;;;;;;5.23;2.23;;;8.70;52.90;;;;;;5050358;28;20442;-75
2024/01/19 03:34:55;;;;;;;1.73;1.63;;;8.70;53.80;;;;;;5051005;28;20467;-75
2024/01/19 03:37:23;;;;;;;2.50;2.30;;;8.70;53.00;;;;;;5051002;28;20562;-76
2024/01/19 03:39:51;;;;;;;1.63;1.53;;;8.80;53.60;;;;;;5050859;28;20466;-76
2024/01/19 03:42:19;;;;;;;3.33;1.50;;;8.80;52.90;;;;;;5048771;28;20482;-76
2024/01/19 03:44:46;;;;;;;2.57;1.60;;;8.80;52.80;;;;;;5042098;28;20428;-75
2024/01/19 03:47:14;;;;;;;1.80;1.27;;;8.80;52.90;;;;;;5050653;28;20443;-74
2024/01/19 03:49:42;;;;;;;1.53;1.40;;;8.80;52.80;;;;;;5051144;28;20520;-75
2024/01/19 03:52:12;;;;;;;2.60;1.27;;;8.80;53.10;;;;;;5057211;28;20488;-75
2024/01/19 03:54:40;;;;;;;1.73;1.27;;;8.80;53.00;;;;;;5070727;28;20491;-74
2024/01/19 03:57:09;;;;;;;1.00;0.90;;;8.70;53.00;;;;;;5070726;28;20426;-74
2024/01/19 03:59:37;;;;;;;2.47;1.13;;;8.70;53.10;;;;;;5053945;28;20550;-75
2024/01/19 04:02:05;;;;;;;2.70;1.17;;;8.80;53.20;;;;;;5042925;28;20455;-75
2024/01/19 04:04:34;;;;;;;1.70;1.20;;;8.70;53.00;;;;;;5037486;28;20501;-76
2024/01/19 04:07:02;;;;;;;1.43;1.00;;;8.80;53.20;;;;;;5047368;28;20446;-75
2024/01/19 04:09:32;;;;;;;1.50;0.93;;;8.80;53.40;;;;;;5033654;28;20470;-75
2024/01/19 04:11:59;;;;;;;1.77;0.80;;;8.70;53.20;;;;;;5030295;28;20444;-76
2024/01/19 04:14:27;;;;;;;2.73;1.40;;;8.80;53.30;;;;;;5031852;28;20431;-75
2024/01/19 04:16:57;;;;;;;1.10;0.80;;;8.70;53.20;;;;;;5050062;28;20519;-75
2024/01/19 04:19:25;;;;;;;2.17;1.00;;;8.70;53.20;;;;;;5034915;28;20431;-74
2024/01/19 04:21:53;;;;;;;1.30;0.80;;;8.80;53.30;;;;;;5042752;28;20435;-75
2024/01/19 04:24:21;;;;;;;1.53;0.70;;;8.80;53.30;;;;;;5047833;28;20435;-75
2024/01/19 04:26:50;;;;;;;1.33;0.70;;;8.80;53.40;;;;;;5030332;28;20463;-74
2024/01/19 04:29:18;;;;;;;0.80;0.80;;;8.70;53.30;;;;;;5042453;28;20477;-76
2024/01/19 04:31:46;;;;;;;5.00;1.27;;;8.70;53.40;;;;;;5048104;28;20451;-74
2024/01/19 04:34:13;;;;;;;3.23;1.00;;;8.60;53.20;;;;;;5049018;28;20527;-74
2024/01/19 04:36:41;;;;;;;2.80;1.00;;;8.70;53.40;;;;;;5027674;28;21005;-76
2024/01/19 04:39:09;;;;;;;1.80;1.17;;;8.70;53.40;;;;;;5036747;28;20558;-74
2024/01/19 04:41:37;;;;;;;1.43;1.33;;;8.70;53.50;;;;;;5037735;28;20451;-75
2024/01/19 04:44:07;;;;;;;2.30;1.17;;;8.70;53.20;;;;;;5032378;28;20470;-76
2024/01/19 04:46:35;;;;;;;1.40;1.40;;;8.70;53.20;;;;;;5035381;28;20485;-74
2024/01/19 04:49:05;;;;;;;1.93;1.20;;;8.60;53.10;;;;;;5029066;28;20461;-74
2024/01/19 04:51:33;;;;;;;2.40;1.33;;;8.60;53.00;;;;;;5042966;28;20474;-75
2024/01/19 04:54:01;;;;;;;3.53;1.40;;;8.60;53.10;;;;;;5034086;28;20479;-76
2024/01/19 04:56:29;;;;;;;6.30;1.80;;;8.50;52.90;;;;;;5053093;28;20517;-76
2024/01/19 04:58:58;;;;;;;2.17;2.00;;;8.60;53.00;;;;;;5040178;28;20493;-74
2024/01/19 05:01:28;;;;;;;1.90;1.63;;;8.50;52.80;;;;;;5043455;28;20506;-76
2024/01/19 05:03:56;;;;;;;3.83;1.47;;;8.50;52.40;;;;;;5049587;28;20502;-75
2024/01/19 05:06:24;;;;;;;4.30;2.23;;;8.50;52.90;;;;;;5047176;28;20451;-74
2024/01/19 05:08:52;;;;;;;1.40;1.30;;;8.40;52.70;;;;;;5037970;28;20555;-75
2024/01/19 05:11:20;;;;;;;2.13;1.30;;;8.30;53.00;;;;;;5039273;28;20482;-75
2024/01/19 05:13:49;;;;;;;1.83;1.70;;;8.30;53.20;;;;;;5043080;28;20451;-75
2024/01/19 05:16:16;;;;;;;3.10;2.07;;;8.30;52.70;;;;;;5039791;28;20446;-75
2024/01/19 05:18:46;;;;;;;2.20;1.50;;;8.40;52.90;;;;;;5049410;28;20470;-74
2024/01/19 05:21:13;;;;;;;1.27;1.17;;;8.30;52.70;;;;;;5048486;28;20494;-76
2024/01/19 05:23:42;;;;;;;2.17;1.67;;;8.30;52.90;;;;;;5040929;28;20541;-76
2024/01/19 05:26:10;;;;;;;3.30;1.47;;;8.30;52.90;;;;;;5037880;28;20446;-76
2024/01/19 05:28:37;;;;;;;4.60;1.40;;;8.30;53.00;;;;;;5044527;28;20890;-76
2024/01/19 05:31:05;;;;;;;2.40;1.60;;;8.40;53.10;;;;;;5039609;28;20517;-74
2024/01/19 05:33:34;;;;;;;6.10;1.80;;;8.30;52.90;;;;;;5037446;28;20455;-75
2024/01/19 05:36:08;;;;;;;2.33;1.67;;;8.30;53.20;;;;;;5030998;28;20445;-75
2024/01/19 05:38:36;;;;;;;1.93;1.50;;;8.30;52.90;;;;;;5052562;28;20470;-74
2024/01/19 05:41:04;;;;;;;2.70;2.03;;;8.30;52.80;;;;;;5060506;28;20443;-76
2024/01/19 05:43:33;;;;;;;3.20;1.73;;;8.30;53.10;;;;;;5058842;28;20450;-76
2024/01/19 05:46:01;;;;;;;1.60;1.50;;;8.30;53.00;;;;;;5056005;28;20438;-75
2024/01/19 05:48:29;;;;;;;4.13;1.80;;;8.30;52.90;;;;;;5053572;28;20493;-76
2024/01/19 05:50:57;;;;;;;1.90;1.80;;;8.20;53.40;;;;;;5049139;28;20524;-75
2024/01/19 05:53:27;;;;;;;3.00;2.13;;;8.30;53.40;;;;;;5034472;28;20548;-78
2024/01/19 05:55:55;;;;;;;1.60;1.50;;;8.30;53.30;;;;;;5034112;28;20501;-75
2024/01/19 05:58:23;;;;;;;4.83;1.60;;;8.40;53.40;;;;;;5032622;28;20494;-76
2024/01/19 06:00:51;;;;;;;3.00;1.60;;;8.30;53.20;;;;;;5032915;28;20486;-75
2024/01/19 06:03:19;;;;;;;4.93;1.97;;;8.40;53.50;;;;;;5032539;28;20443;-74
2024/01/19 06:05:47;;;;;;;2.00;1.40;;;8.40;53.40;;;;;;5045236;28;20504;-75
2024/01/19 06:08:15;;;;;;;2.60;1.87;;;8.40;53.30;;;;;;5045253;28;20458;-76
2024/01/19 06:10:44;;;;;;;2.50;1.50;;;8.40;53.40;;;;;;5052556;28;20501;-76
2024/01/19 06:13:12;;;;;;;5.53;2.00;;;8.40;53.10;;;;;;5052518;28;20446;-77
2024/01/19 06:15:41;;;;;;;5.70;1.80;;;8.40;53.20;;;;;;5052117;28;20446;-76
2024/01/19 06:18:09;;;;;;;5.87;2.00;;;8.40;53.00;;;;;;5052237;28;20458;-75
2024/01/19 06:20:41;;;;;;;6.47;3.43;;;8.40;53.10;;;;;;5051525;28;20481;-75
2024/01/19 06:23:09;;;;;;;2.33;2.13;;;8.40;53.10;;;;;;5052150;28;20457;-75
2024/01/19 06:25:38;;;;;;;5.23;2.00;;;8.40;53.00;;;;;;5052537;28;20443;-75
2024/01/19 06:28:07;;;;;;;2.53;2.30;;;8.40;53.10;;;;;;5052279;28;20469;-74
2024/01/19 06:30:35;;;;;;;7.13;2.13;;;8.40;53.10;;;;;;5052341;28;20477;-76
2024/01/19 06:33:05;;;;;;;7.53;2.30;;;8.40;53.00;;;;;;5052109;28;20478;-73
2024/01/19 06:35:33;;;;;;;6.90;1.87;;;8.30;53.10;;;;;;5052080;28;20470;-74
2024/01/19 06:38:01;;;;;;;4.27;2.40;;;8.40;53.10;;;;;;5080918;22;20484;-76
2024/01/19 06:40:29;;;;;;;2.37;1.90;;;8.40;53.00;;;;;;5086366;28;20414;-79
2024/01/19 06:42:57;;;;;;;5.77;1.90;;;8.30;52.90;;;;;;5071959;28;20461;-77
2024/01/19 06:45:29;;;;;;;2.90;1.80;;;8.40;53.30;;;;;;5073403;28;20472;-77
2024/01/19 06:47:57;;;;;;;4.60;2.20;;;8.30;53.10;;;;;;5084747;28;20487;-77
2024/01/19 06:50:25;;;;;;;2.10;1.33;;;8.30;53.10;;;;;;5091272;28;20457;-77
2024/01/19 06:52:53;;;;;;;6.63;2.20;;;8.40;53.20;;;;;;5091300;28;20544;-77
2024/01/19 06:55:24;;;;;;;7.80;2.00;;;8.40;53.40;;;;;;5088792;28;20448;-77
2024/01/19 06:57:52;;;;;;;4.97;1.73;;;8.30;53.50;;;;;;5073856;28;20456;-76
2024/01/19 07:00:20;;;;;;;10.70;1.60;;;8.30;53.40;;;;;;5089763;28;20524;-77
2024/01/19 07:02:50;;;;;;;3.93;1.63;;;8.30;53.40;;;;;;5091473;28;20433;-77
2024/01/19 07:05:17;;;;;;;7.37;1.77;;;8.30;53.40;;;;;;5091922;28;20433;-78
2024/01/19 07:07:46;;;;;;;7.40;1.60;;;8.40;53.30;;;;;;5091487;28;20456;-77
2024/01/19 07:10:14;;;;;;;4.50;1.40;;;8.40;53.40;;;;;;5090357;28;20448;-77
2024/01/19 07:12:42;;;;;;;12.83;2.20;;;8.40;53.20;;;;;;5090570;28;20518;-76
2024/01/19 07:15:10;;;;;;;2.23;1.30;;;8.30;53.10;;;;;;5090707;28;20452;-77
2024/01/19 07:17:38;;;;;;;3.17;1.60;;;8.30;53.10;;;;;;5091330;28;20437;-76
2024/01/19 07:20:09;;;;;;;4.90;1.37;;;8.30;53.20;;;;;;5091377;28;20448;-76
2024/01/19 07:22:37;;;;;;;4.37;1.73;;;8.30;53.30;;;;;;5090866;28;20448;-77
2024/01/19 07:25:07;;;;;;;4.47;1.33;;;8.30;53.40;;;;;;5090000;28;20528;-77
2024/01/19 07:27:35;;;;;;;3.53;1.20;;;8.30;53.30;;;;;;5090921;28;20441;-77
2024/01/19 07:30:05;;;;;;;3.50;1.23;;;8.30;53.10;;;;;;5072352;28;20521;-77
2024/01/19 07:32:32;;;;;;;6.40;1.20;;;8.30;53.30;;;;;;5088273;28;20471;-78
2024/01/19 07:35:22;;;;;;;2.70;1.20;;;8.30;53.20;;;;;;5089741;28;20449;-78
2024/01/19 07:37:50;;;;;;;3.37;1.20;;;8.30;53.20;;;;;;5082229;28;20461;-78
2024/01/19 07:40:18;;;;;;;4.00;1.67;;;8.30;53.20;;;;;;5076548;28;20520;-78
2024/01/19 07:42:46;;;;;;;1.93;1.27;;;8.30;52.80;;;;;;5089985;28;20524;-79
2024/01/19 07:45:14;;;;;;;2.30;1.20;;;8.30;53.00;;;;;;5090327;28;20460;-79
2024/01/19 07:47:42;;;;;;;5.63;1.30;;;8.30;53.20;;;;;;5090904;28;20457;-78
2024/01/19 07:50:11;;;;;;;2.23;1.27;;;8.30;52.90;;;;;;5089930;28;20456;-78
2024/01/19 07:52:41;;;;;;;4.87;1.50;;;8.30;53.10;;;;;;5088861;28;20471;-78
2024/01/19 07:55:09;;;;;;;5.23;1.60;;;8.40;52.90;;;;;;5086251;28;20441;-78
2024/01/19 07:57:38;;;;;;;5.03;1.80;;;8.40;52.60;;;;;;5090477;28;20429;-78
2024/01/19 08:00:08;;;;;;;3.70;1.43;;;8.40;52.70;;;;;;5090644;28;20437;-76
2024/01/19 08:02:37;;;;;;;6.67;1.40;;;8.40;52.80;;;;;;5090314;28;20445;-77
2024/01/19 08:05:05;;;;;;;8.90;1.63;;;8.30;52.60;;;;;;5089150;28;20468;-78
2024/01/19 08:07:33;;;;;;;3.80;1.57;;;8.40;52.60;;;;;;5083729;28;20481;-78
2024/01/19 08:10:02;;;;;;;3.77;1.63;;;8.40;52.20;;;;;;5083973;28;20471;-77
2024/01/19 08:12:30;;;;;;;4.63;1.53;;;8.50;52.50;;;;;;5088804;28;20508;-77
2024/01/19 08:14:58;;;;;;;6.60;1.40;;;8.50;52.20;;;;;;5090216;28;20523;-78
2024/01/19 08:17:26;;;;;;;3.90;1.43;;;8.50;52.00;;;;;;5089732;28;20428;-78
2024/01/19 08:19:54;;;;;;;4.07;1.40;;;8.50;52.60;;;;;;5087135;28;20468;-78
2024/01/19 08:22:22;;;;;;;3.63;1.60;;;8.50;51.80;;;;;;5088381;28;20421;-77
2024/01/19 08:24:50;;;;;;;2.80;1.50;;;8.40;51.80;;;;;;5088938;28;20476;-79
2024/01/19 08:27:20;;;;;;;4.23;1.47;;;8.50;51.90;;;;;;5089225;28;20465;-78
2024/01/19 08:29:48;;;;;;;5.53;1.70;;;8.50;51.70;;;;;;5090216;28;20445;-79
2024/01/19 08:32:17;;;;;;;3.80;1.63;;;8.40;51.80;;;;;;5089893;28;20457;-78
2024/01/19 08:34:45;;;;;;;2.90;1.57;;;8.40;51.80;;;;;;5089467;28;20441;-79
2024/01/19 08:37:13;;;;;;;4.40;1.70;;;8.40;51.90;;;;;;5084238;28;20444;-78
2024/01/19 08:39:41;;;;;;;2.10;1.50;;;8.40;51.80;;;;;;5087947;28;20522;-78
2024/01/19 08:42:09;;;;;;;2.70;1.67;;;8.50;52.20;;;;;;5090836;28;20508;-79
2024/01/19 08:44:38;;;;;;;8.93;1.80;;;8.60;52.00;;;;;;5094345;28;20432;-77
2024/01/19 08:47:07;;;;;;;7.07;1.80;;;8.70;51.60;;;;;;5094088;28;20460;-77
2024/01/19 08:49:35;;;;;;;4.40;2.10;;;8.70;51.50;;;;;;5093863;28;20457;-78
2024/01/19 08:52:04;;;;;;;5.50;2.00;;;8.70;51.50;;;;;;5093446;28;20468;-77
2024/01/19 08:54:31;;;;;;;4.13;1.90;;;8.80;51.40;;;;;;5094734;28;20444;-77
2024/01/19 08:56:59;;;;;;;3.23;1.73;;;8.90;51.50;;;;;;5083394;28;20514;-79
2024/01/19 08:59:29;;;;;;;9.67;2.47;;;9.00;51.30;;;;;;5091778;28;20475;-76
2024/01/19 09:01:59;;;;;;;4.37;2.27;;;9.10;51.40;;;;;;5085035;28;20476;-77
2024/01/19 09:04:27;;;;;;;5.90;1.90;;;9.20;51.50;;;;;;5088418;28;20458;-75
2024/01/19 09:06:55;;;;;;;10.53;2.07;;;9.40;51.20;;;;;;5081459;28;20453;-75
2024/01/19 09:09:26;;;;;;;2.83;2.00;;;9.50;51.10;;;;;;5076379;28;20974;-76
2024/01/19 09:11:55;;;;;;;4.13;2.30;;;9.70;51.00;;;;;;5086338;28;20505;-75
2024/01/19 09:14:24;;;;;;;2.80;2.07;;;9.80;50.70;;;;;;5083437;28;20453;-75
2024/01/19 09:16:52;;;;;;;6.40;1.93;;;10.00;50.00;;;;;;5090117;28;20456;-75
2024/01/19 09:19:21;;;;;;;11.77;2.20;;;10.10;49.70;;;;;;5091191;28;20555;-75
2024/01/19 09:21:50;;;;;;;5.83;2.17;;;10.30;49.80;;;;;;5093305;28;20437;-74
2024/01/19 09:24:18;;;;;;;4.10;1.70;;;10.30;48.90;;;;;;5092382;28;20444;-75
2024/01/19 09:26:46;;;;;;;5.47;2.13;;;10.40;48.80;;;;;;5087271;28;20452;-75
2024/01/19 09:29:14;;;;;;;5.53;1.93;;;10.50;48.80;;;;;;5082352;28;20468;-75
2024/01/19 09:31:43;;;;;;;6.40;1.97;;;10.50;48.50;;;;;;5083258;28;20501;-74
2024/01/19 09:34:11;;;;;;;5.10;2.27;;;10.60;48.40;;;;;;5094220;28;20529;-75
2024/01/19 09:36:40;;;;;;;3.70;2.00;;;10.50;48.20;;;;;;5092384;28;20456;-77
2024/01/19 09:39:08;;;;;;;5.60;2.27;;;10.60;48.30;;;;;;5094621;28;20468;-76
2024/01/19 09:41:39;;;;;;;5.27;2.43;;;10.60;48.20;;;;;;5089088;28;20460;-75
2024/01/19 09:44:12;;;;;;;5.33;2.20;;;10.70;48.30;;;;;;5089405;28;20453;-76
2024/01/19 09:46:51;;;;;;;7.13;2.10;;;10.80;48.40;;;;;;5088208;28;20453;-76
2024/01/19 09:49:26;;;;;;;5.73;1.80;;;10.90;48.00;;;;;;5092928;28;20456;-76
2024/01/19 09:52:03;;;;;;;2.00;1.70;;;10.90;47.90;;;;;;5089602;28;20447;-77
2024/01/19 09:54:33;;;;;;;1.77;1.50;;;10.90;47.90;;;;;;5082121;28;20545;-77
2024/01/19 09:57:01;;;;;;;5.87;1.70;;;11.00;48.00;;;;;;5083902;28;20446;-76
2024/01/19 09:59:30;;;;;;;12.10;2.20;;;11.10;48.00;;;;;;5078508;28;20461;-76
2024/01/19 10:01:58;;;;;;;6.30;1.70;;;11.20;47.70;;;;;;5076789;28;20940;-77
2024/01/19 10:04:26;;;;;;;8.30;2.00;;;11.40;48.20;;;;;;5091453;28;20564;-75
2024/01/19 10:06:55;;;;;;;1.70;1.40;;;11.50;47.80;;;;;;5087360;28;20507;-78
2024/01/19 10:09:24;;;;;;;7.30;2.10;;;11.70;47.70;;;;;;5093356;28;20472;-76
2024/01/19 10:11:53;;;;;;;6.30;1.50;;;11.90;47.60;;;;;;5089273;28;20453;-77
2024/01/19 10:14:22;;;;;;;2.50;1.60;;;12.00;47.40;;;;;;5093766;28;20533;-77
2024/01/19 10:16:51;;;;;;;4.83;2.00;;;12.20;47.40;;;;;;5092598;28;20463;-76
2024/01/19 10:19:20;;;;;;;3.97;1.53;;;12.50;47.20;;;;;;5092906;28;20480;-77
2024/01/19 10:21:52;;;;;;;7.63;1.90;;;12.70;47.00;;;;;;5084722;28;20546;-76
2024/01/19 10:24:22;;;;;;;5.00;1.93;;;12.80;46.60;;;;;;5089182;28;20472;-76
2024/01/19 10:26:55;;;;;;;5.10;1.70;;;12.80;46.50;;;;;;5082840;28;20444;-77
2024/01/19 10:29:23;;;;;;;11.00;2.10;;;13.00;46.10;;;;;;5086867;28;20471;-77
2024/01/19 10:31:52;;;;;;;3.33;1.70;;;13.10;45.70;;;;;;5094462;28;20441;-78
2024/01/19 10:34:22;;;;;;;7.83;1.73;;;13.20;46.20;;;;;;5094725;28;20476;-76
2024/01/19 10:36:50;;;;;;;5.40;1.60;;;13.40;45.40;;;;;;5091441;28;20496;-78
2024/01/19 10:39:19;;;;;;;5.30;1.97;;;13.50;45.20;;;;;;5095079;28;20571;-77
2024/01/19 10:41:47;;;;;;;4.07;1.77;;;13.70;45.10;;;;;;5092507;28;20497;-77
2024/01/19 10:44:19;;;;;;;5.73;1.83;;;13.80;44.80;;;;;;5083215;28;20445;-78
2024/01/19 10:46:47;;;;;;;5.63;1.73;;;14.10;44.90;;;;;;5094170;28;20441;-77
2024/01/19 10:49:16;;;;;;;4.87;2.13;;;14.30;44.40;;;;;;5085355;28;20449;-77
2024/01/19 10:51:44;;;;;;;5.60;1.60;;;14.40;44.10;;;;;;5089462;28;20454;-77
2024/01/19 10:54:23;;;;;;;7.67;1.93;;;14.60;43.80;;;;;;5084571;28;20480;-78
2024/01/19 10:56:51;;;;;;;6.50;1.90;;;14.70;42.80;;;;;;5095800;28;20504;-77
2024/01/19 10:59:20;;;;;;;10.07;2.40;;;14.60;42.80;;;;;;5102638;28;20456;-77
2024/01/19 11:01:48;;;;;;;7.47;1.70;;;14.60;43.00;;;;;;5092652;28;20521;-78
2024/01/19 11:04:16;;;;;;;6.40;2.10;;;14.70;42.40;;;;;;5097341;28;20470;-77
2024/01/19 11:06:44;;;;;;;9.20;1.97;;;14.70;42.10;;;;;;5090575;28;20530;-77
2024/01/19 11:09:12;;;;;;;14.90;1.87;;;14.70;42.20;;;;;;5080297;28;20537;-76
2024/01/19 11:11:41;;;;;;;5.33;1.90;;;14.60;41.80;;;;;;5082787;28;20447;-77
2024/01/19 11:14:09;;;;;;;4.30;1.60;;;14.50;41.80;;;;;;5079901;28;20562;-78
2024/01/19 11:16:42;;;;;;;4.43;2.00;;;14.50;41.90;;;;;;5091252;28;20441;-77
2024/01/19 11:19:10;;;;;;;7.17;2.00;;;14.60;42.10;;;;;;5093236;28;20469;-77
2024/01/19 11:21:39;;;;;;;7.00;2.30;;;14.70;41.90;;;;;;5090768;28;20429;-77
2024/01/19 11:24:07;;;;;;;3.17;1.70;;;14.80;41.50;;;;;;5086744;28;20441;-77
2024/01/19 11:26:37;;;;;;;7.40;2.00;;;14.90;41.80;;;;;;5091241;28;20541;-78
2024/01/19 11:29:14;;;;;;;8.07;1.70;;;15.10;41.30;;;;;;5080093;28;20484;-79
2024/01/19 11:31:49;;;;;;;8.77;2.00;;;15.40;41.30;;;;;;5078976;28;20483;-78
2024/01/19 11:34:44;;;;;;;6.47;1.60;;;15.60;40.80;;;;;;5093069;28;20468;-78
2024/01/19 11:37:40;;;;;;;8.03;2.00;;;15.80;40.50;;;;;;5093377;28;20459;-78
2024/01/19 11:40:08;;;;;;;9.40;2.10;;;16.00;40.10;;;;;;5077366;28;20518;-78
2024/01/19 11:42:45;;;;;;;10.87;2.17;;;16.20;39.70;;;;;;5088312;28;20478;-78
2024/01/19 11:45:38;;;;;;;3.03;1.60;;;16.40;39.40;;;;;;5089377;28;20472;-78
2024/01/19 11:48:07;;;;;;;6.13;2.10;;;16.60;39.10;;;;;;5083282;28;20464;-79
2024/01/19 11:50:42;;;;;;;6.37;1.93;;;16.80;38.80;;;;;;5088580;28;20548;-78
2024/01/19 11:53:10;;;;;;;5.60;1.97;;;17.10;38.70;;;;;;5091955;28;20479;-78
2024/01/19 11:55:38;;;;;;;3.10;1.47;;;17.40;38.60;;;;;;5084041;28;20436;-78
2024/01/19 11:58:29;;;;;;;7.80;2.17;;;17.50;37.80;;;;;;5091530;28;20535;-78
2024/01/19 12:00:58;;;;;;;6.20;1.60;;;17.70;37.40;;;;;;5092008;28;20544;-78
2024/01/19 12:03:28;;;;;;;4.20;1.80;;;17.80;37.00;;;;;;5085984;28;20438;-79
2024/01/19 12:05:59;;;;;;;4.50;1.87;;;17.90;37.10;;;;;;5092496;28;20453;-78
2024/01/19 12:08:28;;;;;;;7.33;1.90;;;18.00;36.30;;;;;;5088697;28;20469;-77
2024/01/19 12:11:04;;;;;;;7.43;2.00;;;18.10;36.30;;;;;;5089057;28;20456;-78
2024/01/19 12:13:32;;;;;;;3.90;1.67;;;18.30;35.90;;;;;;5095863;28;20472;-78
2024/01/19 12:16:01;;;;;;;3.63;1.50;;;18.50;36.10;;;;;;5083401;28;20440;-78
2024/01/19 12:18:30;;;;;;;5.50;1.90;;;18.60;35.60;;;;;;5088148;28;20458;-78
2024/01/19 12:20:58;;;;;;;2.80;1.50;;;18.70;36.20;;;;;;5087346;28;20430;-77
2024/01/19 12:23:28;;;;;;;3.60;1.70;;;18.80;35.10;;;;;;5085999;28;20455;-77
2024/01/19 12:25:57;;;;;;;7.20;2.00;;;18.90;35.10;;;;;;5088179;28;20437;-78
2024/01/19 12:28:25;;;;;;;6.40;1.93;;;19.10;35.30;;;;;;5079430;28;20465;-78
2024/01/19 12:30:53;;;;;;;4.13;1.80;;;19.20;34.70;;;;;;5086691;28;20480;-77
2024/01/19 12:33:24;;;;;;;10.03;2.13;;;19.30;34.50;;;;;;5082496;28;20449;-77
2024/01/19 12:36:04;;;;;;;3.87;2.10;;;19.50;34.70;;;;;;5085763;28;20503;-77
2024/01/19 12:38:31;;;;;;;4.57;1.83;;;19.60;34.20;;;;;;5091854;28;20512;-77
2024/01/19 12:40:59;;;;;;;6.03;2.20;;;19.70;34.00;;;;;;5083474;28;20483;-77
2024/01/19 12:43:31;;;;;;;6.60;2.20;;;19.90;33.90;;;;;;5080727;28;20473;-77
2024/01/19 12:46:03;;;;;;;7.30;1.77;;;20.00;35.00;;;;;;5081046;28;20435;-78
2024/01/19 12:48:31;;;;;;;6.00;2.00;;;20.10;34.30;;;;;;5089371;28;20480;-78
2024/01/19 12:51:05;;;;;;;9.73;2.47;;;20.10;34.50;;;;;;5089844;28;20535;-78
2024/01/19 12:53:33;;;;;;;4.23;1.70;;;20.10;33.90;;;;;;5084594;28;20503;-77
2024/01/19 12:56:02;;;;;;;9.93;3.30;;;20.20;33.80;;;;;;5089448;28;20438;-78
2024/01/19 12:58:30;;;;;;;12.07;3.33;;;20.20;33.00;;;;;;5085295;28;20469;-77
2024/01/19 13:01:04;;;;;;;5.80;3.07;;;20.30;33.60;;;;;;5083242;28;20505;-78
2024/01/19 13:03:32;;;;;;;6.50;2.67;;;20.30;33.30;;;;;;5101418;28;20426;-78